Time;durP1;ratioP1;P1;durP2;ratioP2;P2;SDS_P1;SDS_P2;PMS_P1;PMS_P2;Temp;Humidity;BMP_temperature;BMP_pressure;BME280_temperature;BME280_humidity;BME280_pressure;Samples;Min_cycle;Max_cycle;Signal;HPM_P1;HPM_P2
2022/02/05 00:00:31;;;;;;;37.17;18.65;;;;;;;-5.63;100.00;95105.47;5052516;28;20113;-47
2022/02/05 00:08:44;;;;;;;23.20;10.43;;;;;;;-5.80;100.00;95108.56;5051540;28;20465;-47
2022/02/05 00:43:09;;;;;;;24.88;12.90;;;;;;;-6.49;100.00;95102.19;5055275;28;20150;-46
2022/02/05 00:45:40;;;;;;;21.48;10.13;;;;;;;-6.50;100.00;95110.69;5054451;28;20853;-49
2022/02/05 00:48:08;;;;;;;11.95;7.63;;;;;;;-6.49;100.00;95109.00;5054708;28;20056;-46
2022/02/05 00:50:39;;;;;;;23.52;10.60;;;;;;;-6.53;100.00;95116.03;5051970;28;20106;-48
2022/02/05 00:55:39;;;;;;;18.00;11.10;;;;;;;-6.50;100.00;95110.69;5052318;28;20047;-46
2022/02/05 00:58:07;;;;;;;20.65;10.57;;;;;;;-6.48;100.00;95102.97;5053457;28;20103;-48
2022/02/05 01:00:37;;;;;;;20.02;10.68;;;;;;;-6.44;100.00;95095.03;5047229;28;20045;-46
2022/02/05 01:03:04;;;;;;;17.05;8.65;;;;;;;-6.40;100.00;95104.00;5050058;28;20048;-47
2022/02/05 01:05:35;;;;;;;22.05;10.38;;;;;;;-6.48;100.00;95083.53;5048584;28;20037;-50
2022/02/05 01:08:02;;;;;;;18.20;9.88;;;;;;;-6.36;100.00;95102.81;5051098;28;20080;-47
2022/02/05 01:10:29;;;;;;;18.70;10.20;;;;;;;-6.31;100.00;95104.22;5046490;28;20045;-49
2022/02/05 01:13:04;;;;;;;22.92;12.73;;;;;;;-6.27;100.00;95090.38;5045568;28;20464;-47
2022/02/05 01:15:41;;;;;;;46.03;19.67;;;;;;;-6.36;100.00;95077.47;5047669;28;20115;-47
2022/02/05 01:18:10;;;;;;;42.42;19.85;;;;;;;-6.31;100.00;95083.94;5046987;28;20118;-47
2022/02/05 01:26:14;;;;;;;29.98;14.25;;;;;;;-6.20;100.00;95074.53;5049493;28;22068;-47
2022/02/05 01:28:44;;;;;;;42.58;17.88;;;;;;;-6.18;100.00;95076.97;5046947;28;20041;-50
2022/02/05 01:31:11;;;;;;;36.35;16.10;;;;;;;-6.22;100.00;95073.06;5048675;28;20048;-48
2022/02/05 01:57:41;;;;;;;21.77;10.38;;;;;;;-6.86;100.00;95069.59;5049248;28;20057;-46
2022/02/05 02:05:35;;;;;;;17.90;8.95;;;;;;;-6.98;100.00;95065.47;5051678;28;20048;-48
2022/02/05 02:21:33;;;;;;;19.65;10.55;;;;;;;-6.72;100.00;95073.56;5051886;28;20037;-48
2022/02/05 02:24:16;;;;;;;17.33;8.10;;;;;;;-6.70;100.00;95070.91;5051816;28;20128;-46
2022/02/05 02:29:15;;;;;;;17.77;8.88;;;;;;;-6.73;100.00;95072.78;5045648;28;20494;-47
2022/02/05 02:31:46;;;;;;;21.42;10.13;;;;;;;-6.65;100.00;95073.91;5045569;28;20045;-48
2022/02/05 02:34:18;;;;;;;17.65;8.57;;;;;;;-6.70;100.00;95073.44;5053765;28;20052;-51
2022/02/05 02:36:53;;;;;;;27.65;11.68;;;;;;;-6.65;100.00;95076.44;5048605;28;20411;-49
2022/02/05 02:39:26;;;;;;;29.88;10.02;;;;;;;-6.67;100.00;95078.28;5049614;28;20036;-47
2022/02/05 02:42:00;;;;;;;21.83;10.32;;;;;;;-6.65;100.00;95082.31;5046830;28;20049;-49
2022/02/05 02:44:26;;;;;;;36.97;16.58;;;;;;;-6.62;100.00;95071.13;5045769;28;20044;-47
2022/02/05 02:46:53;;;;;;;35.00;15.70;;;;;;;-6.60;100.00;95072.63;5046555;28;20049;-49
2022/02/05 02:57:34;;;;;;;19.05;11.38;;;;;;;-6.69;100.00;95080.13;5047204;28;20048;-47
2022/02/05 03:00:06;;;;;;;22.15;12.05;;;;;;;-6.71;100.00;95087.84;5052606;28;20476;-46
2022/02/05 03:02:33;;;;;;;27.05;12.32;;;;;;;-6.74;100.00;95093.94;5048292;28;20060;-46
2022/02/05 03:05:00;;;;;;;29.50;14.50;;;;;;;-6.84;100.00;95100.66;5045440;28;20454;-49
2022/02/05 03:07:27;;;;;;;16.42;9.88;;;;;;;-7.02;100.00;95102.03;5047035;28;20473;-51
2022/02/05 03:09:56;;;;;;;17.23;9.02;;;;;;;-7.10;100.00;95092.50;5046537;28;20403;-48
2022/02/05 03:12:23;;;;;;;16.73;8.30;;;;;;;-7.19;100.00;95094.00;5043349;28;20076;-47
2022/02/05 03:14:51;;;;;;;13.68;6.88;;;;;;;-7.27;100.00;95101.38;5045075;28;20506;-47
2022/02/05 03:17:23;;;;;;;15.57;8.02;;;;;;;-7.29;100.00;95113.34;5051725;28;20052;-47
2022/02/05 03:19:55;;;;;;;10.55;7.18;;;;;;;-7.31;100.00;95102.50;5046423;28;20071;-50
2022/02/05 03:22:23;;;;;;;12.88;7.80;;;;;;;-7.40;100.00;95100.66;5044730;28;20064;-46
2022/02/05 03:24:51;;;;;;;12.73;7.03;;;;;;;-7.46;100.00;95083.44;5053757;28;20433;-46
2022/02/05 03:27:19;;;;;;;10.10;7.55;;;;;;;-7.43;100.00;95095.84;5048968;28;20045;-48
2022/02/05 03:29:49;;;;;;;15.02;6.85;;;;;;;-7.45;100.00;95090.06;5044799;28;20549;-46
2022/02/05 03:32:18;;;;;;;14.60;7.78;;;;;;;-7.46;100.00;95093.53;5050307;28;20049;-46
2022/02/05 03:34:45;;;;;;;15.82;8.38;;;;;;;-7.42;100.00;95092.38;5045852;28;20857;-46
2022/02/05 03:37:12;;;;;;;15.93;8.05;;;;;;;-7.48;100.00;95098.72;5047854;28;20419;-48
2022/02/05 03:39:39;;;;;;;15.13;7.55;;;;;;;-7.47;100.00;95091.91;5047561;28;20068;-46
2022/02/05 03:42:06;;;;;;;18.67;9.98;;;;;;;-7.49;100.00;95092.03;5044742;28;20057;-46
2022/02/05 03:44:33;;;;;;;24.15;14.77;;;;;;;-7.41;100.00;95104.13;5044730;28;20083;-47
2022/02/05 03:47:00;;;;;;;18.52;9.57;;;;;;;-7.35;100.00;95098.59;5049115;28;20062;-48
2022/02/05 03:49:27;;;;;;;19.95;11.43;;;;;;;-7.36;100.00;95107.13;5051116;28;20052;-49
2022/02/05 03:51:54;;;;;;;22.80;11.10;;;;;;;-7.37;100.00;95105.50;5050506;28;20071;-47
2022/02/05 03:54:24;;;;;;;17.88;8.65;;;;;;;-7.37;100.00;95116.44;5043794;28;20037;-46
2022/02/05 03:56:51;;;;;;;20.80;9.85;;;;;;;-7.33;100.00;95111.94;5046670;28;20044;-50
2022/02/05 03:59:18;;;;;;;16.77;7.85;;;;;;;-7.29;100.00;95108.28;5046102;28;20048;-49
2022/02/05 04:01:46;;;;;;;13.63;7.82;;;;;;;-7.32;100.00;95108.50;5051333;28;20055;-47
2022/02/05 04:04:14;;;;;;;12.80;8.23;;;;;;;-7.32;100.00;95105.97;5050609;28;20032;-47
2022/02/05 04:06:41;;;;;;;16.92;8.30;;;;;;;-7.37;100.00;95108.03;5045498;28;20037;-47
2022/02/05 04:09:16;;;;;;;29.48;10.23;;;;;;;-7.41;100.00;95094.00;5048672;28;20110;-47
2022/02/05 04:11:58;;;;;;;16.13;8.48;;;;;;;-7.38;100.00;95103.88;5044034;28;20041;-48
2022/02/05 04:17:10;;;;;;;13.02;7.57;;;;;;;-7.35;100.00;95099.41;5048993;28;20128;-46
2022/02/05 04:19:37;;;;;;;15.23;9.85;;;;;;;-7.29;100.00;95098.16;5047319;28;20468;-48
2022/02/05 04:22:05;;;;;;;15.40;8.05;;;;;;;-7.23;100.00;95097.69;5052188;28;20061;-47
2022/02/05 04:24:32;;;;;;;18.30;8.85;;;;;;;-7.23;100.00;95101.94;5045727;28;20122;-50
2022/02/05 04:26:58;;;;;;;26.05;13.05;;;;;;;-7.24;100.00;95106.19;5047762;28;20517;-46
2022/02/05 04:29:25;;;;;;;19.05;10.20;;;;;;;-7.28;100.00;95109.88;5044172;28;20075;-49
2022/02/05 04:31:52;;;;;;;42.55;15.45;;;;;;;-7.26;100.00;95100.44;5048098;28;20078;-46
2022/02/05 04:34:18;;;;;;;17.35;11.95;;;;;;;-7.22;100.00;95106.91;5048182;28;20056;-47
2022/02/05 04:36:45;;;;;;;26.17;13.00;;;;;;;-7.31;100.00;95102.50;5047806;28;20052;-46
2022/02/05 04:39:15;;;;;;;19.90;11.63;;;;;;;-7.20;100.00;95122.78;5050188;28;20053;-47
2022/02/05 04:42:06;;;;;;;25.92;10.82;;;;;;;-7.20;100.00;95105.06;5047975;28;20044;-46
2022/02/05 05:06:02;;;;;;;11.10;6.43;;;;;;;-7.46;100.00;95101.13;5050045;28;20772;-48
2022/02/05 05:08:51;;;;;;;14.93;7.75;;;;;;;-7.39;100.00;95120.00;5048467;28;20049;-49
2022/02/05 05:21:42;;;;;;;12.50;6.28;;;;;;;-7.35;100.00;95124.72;5052105;28;20098;-47
2022/02/05 05:24:09;;;;;;;11.52;6.38;;;;;;;-7.40;100.00;95120.91;5056959;28;20052;-47
2022/02/05 05:26:37;;;;;;;13.43;6.68;;;;;;;-7.38;100.00;95124.13;5050545;28;20043;-46
2022/02/05 05:29:04;;;;;;;12.30;7.18;;;;;;;-7.30;100.00;95121.84;5052011;28;20049;-46
2022/02/05 05:31:31;;;;;;;10.77;6.47;;;;;;;-7.25;100.00;95129.91;5053388;28;20040;-48
2022/02/05 05:33:58;;;;;;;13.98;7.18;;;;;;;-7.22;100.00;95129.69;5049498;28;20041;-46
2022/02/05 05:36:25;;;;;;;15.18;8.68;;;;;;;-7.18;100.00;95125.19;5054950;28;20044;-48
2022/02/05 05:38:58;;;;;;;13.80;8.98;;;;;;;-7.12;100.00;95120.47;5048981;28;20114;-47
2022/02/05 05:41:25;;;;;;;24.05;9.95;;;;;;;-6.99;100.00;95129.66;5046078;28;20048;-47
2022/02/05 05:44:15;;;;;;;13.02;8.70;;;;;;;-6.91;100.00;95132.44;5045758;28;20099;-48
2022/02/05 05:46:46;;;;;;;16.98;6.95;;;;;;;-6.90;100.00;95131.50;5045546;28;20048;-49
2022/02/05 05:49:16;;;;;;;25.50;9.73;;;;;;;-6.80;100.00;95129.09;5047480;28;20071;-47
2022/02/05 05:51:44;;;;;;;23.75;11.75;;;;;;;-6.71;100.00;95138.53;5044889;28;20052;-47
2022/02/05 05:54:11;;;;;;;19.13;9.52;;;;;;;-6.58;100.00;95133.31;5045248;28;20064;-47
2022/02/05 05:56:39;;;;;;;27.75;11.77;;;;;;;-6.51;100.00;95133.66;5048526;28;20072;-47
2022/02/05 05:59:05;;;;;;;17.73;10.02;;;;;;;-6.47;100.00;95143.41;5046682;28;20122;-50
2022/02/05 06:01:32;;;;;;;14.60;9.25;;;;;;;-6.41;100.00;95145.50;5045434;28;20041;-48
2022/02/05 06:03:59;;;;;;;19.50;12.00;;;;;;;-6.40;100.00;95134.41;5046834;28;20045;-46
2022/02/05 06:06:26;;;;;;;18.60;9.90;;;;;;;-6.24;100.00;95145.91;5045125;28;20355;-47
2022/02/05 06:08:52;;;;;;;17.30;9.13;;;;;;;-6.21;100.00;95143.09;5045763;28;20056;-48
2022/02/05 06:11:19;;;;;;;12.23;7.55;;;;;;;-6.09;100.00;95154.84;5045570;28;20481;-47
2022/02/05 06:13:46;;;;;;;12.27;8.48;;;;;;;-6.04;100.00;95157.81;5043653;28;20529;-47
2022/02/05 06:16:17;;;;;;;20.13;11.35;;;;;;;-5.98;100.00;95152.28;5045936;28;20072;-46
2022/02/05 06:18:43;;;;;;;27.15;10.80;;;;;;;-5.89;100.00;95154.97;5045760;28;20124;-49
2022/02/05 06:21:10;;;;;;;22.30;12.00;;;;;;;-5.79;100.00;95160.91;5044248;28;20114;-46
2022/02/05 06:23:37;;;;;;;35.05;15.40;;;;;;;-5.73;100.00;95149.47;5046523;28;20049;-48
2022/02/05 06:26:04;;;;;;;16.35;9.70;;;;;;;-5.54;100.00;95164.03;5046278;28;20053;-48
2022/02/05 06:28:31;;;;;;;15.23;9.52;;;;;;;-5.45;100.00;95160.75;5046045;28;20387;-47
2022/02/05 06:30:58;;;;;;;17.88;9.30;;;;;;;-5.40;100.00;95163.72;5043674;28;20060;-50
2022/02/05 06:33:24;;;;;;;23.67;12.70;;;;;;;-5.35;100.00;95159.06;5045007;28;20045;-47
2022/02/05 06:35:54;;;;;;;18.23;9.55;;;;;;;-5.29;100.00;95171.28;5044184;28;20534;-51
2022/02/05 06:38:21;;;;;;;26.05;13.07;;;;;;;-5.23;100.00;95173.31;5046746;28;20052;-47
2022/02/05 06:40:48;;;;;;;27.88;10.57;;;;;;;-5.16;100.00;95167.72;5046300;28;20503;-47
2022/02/05 06:43:15;;;;;;;22.40;11.07;;;;;;;-5.14;100.00;95165.88;5044613;28;20056;-47
2022/02/05 06:45:41;;;;;;;19.98;10.73;;;;;;;-5.04;100.00;95169.25;5051403;28;20120;-47
2022/02/05 06:48:09;;;;;;;25.88;14.15;;;;;;;-4.94;100.00;95166.75;5045454;28;20045;-47
2022/02/05 06:50:37;;;;;;;29.27;14.38;;;;;;;-4.73;100.00;95174.34;5044092;28;20053;-47
2022/02/05 06:53:03;;;;;;;61.75;25.55;;;;;;;-4.59;100.00;95166.38;5046028;28;20037;-49
2022/02/05 06:55:30;;;;;;;69.80;33.63;;;;;;;-4.51;100.00;95171.59;5044147;28;20072;-46
2022/02/05 06:57:57;;;;;;;82.68;32.22;;;;;;;-4.34;100.00;95174.44;5050321;28;20048;-49
2022/02/05 07:00:24;;;;;;;71.88;35.45;;;;;;;-4.07;100.00;95171.28;5053310;28;20447;-48
2022/02/05 07:02:51;;;;;;;65.20;30.45;;;;;;;-3.95;100.00;95159.25;5047226;28;20049;-47
2022/02/05 07:05:17;;;;;;;47.22;22.00;;;;;;;-3.88;100.00;95170.50;5045284;28;20041;-50
2022/02/05 07:07:44;;;;;;;33.00;17.70;;;;;;;-3.89;100.00;95168.88;5046479;28;20071;-49
2022/02/05 07:10:11;;;;;;;20.52;12.85;;;;;;;-3.88;98.97;95165.41;5046739;28;20059;-46
2022/02/05 07:12:57;;;;;;;29.35;12.57;;;;;;;-3.93;97.00;95162.44;5042174;28;20048;-47
2022/02/05 07:15:27;;;;;;;42.55;17.23;;;;;;;-3.96;96.46;95178.81;5042101;28;20040;-47
2022/02/05 07:20:45;;;;;;;34.78;16.35;;;;;;;-3.84;95.95;95176.91;5046939;28;20522;-48
2022/02/05 07:31:15;;;;;;;33.88;15.82;;;;;;;-3.28;96.48;95173.69;5042315;28;20075;-48
2022/02/05 07:33:42;;;;;;;32.33;16.05;;;;;;;-3.11;96.68;95173.91;5044078;28;20049;-46
2022/02/05 07:36:11;;;;;;;32.78;18.15;;;;;;;-2.98;97.81;95179.50;5050885;28;20041;-47
2022/02/05 07:38:38;;;;;;;24.30;13.55;;;;;;;-2.89;97.00;95183.75;5050522;28;20044;-47
2022/02/05 07:41:04;;;;;;;37.53;19.10;;;;;;;-2.84;95.06;95180.00;5046712;28;20494;-50
2022/02/05 07:43:35;;;;;;;67.22;25.45;;;;;;;-2.77;94.64;95181.06;5044019;28;20049;-46
2022/02/05 07:46:06;;;;;;;36.53;16.95;;;;;;;-2.78;95.18;95184.53;5043183;28;20047;-51
2022/02/05 07:48:33;;;;;;;24.30;10.32;;;;;;;-2.93;95.27;95187.53;5042646;28;20056;-48
2022/02/05 07:51:00;;;;;;;36.42;14.90;;;;;;;-2.85;95.52;95188.59;5047953;28;20055;-49
2022/02/05 07:53:28;;;;;;;37.10;16.75;;;;;;;-2.97;95.16;95178.56;5046319;28;20107;-47
2022/02/05 07:55:55;;;;;;;27.75;16.15;;;;;;;-2.82;94.71;95188.31;5048939;28;20756;-47
2022/02/05 07:58:22;;;;;;;26.90;10.85;;;;;;;-2.81;94.04;95179.72;5044501;28;20049;-52
2022/02/05 08:00:50;;;;;;;24.95;15.07;;;;;;;-2.76;94.29;95192.84;5044150;28;20044;-51
2022/02/05 08:03:18;;;;;;;21.80;12.07;;;;;;;-2.71;93.85;95191.47;5046152;28;20526;-51
2022/02/05 08:05:45;;;;;;;29.55;14.85;;;;;;;-2.76;94.04;95188.53;5049486;28;20041;-47
2022/02/05 08:08:15;;;;;;;19.85;10.57;;;;;;;-2.93;95.63;95177.34;5056365;28;20049;-47
2022/02/05 08:10:54;;;;;;;16.15;9.10;;;;;;;-2.84;96.92;95180.00;5048897;28;20048;-48
2022/02/05 08:13:23;;;;;;;35.55;14.90;;;;;;;-2.64;96.91;95191.72;5049137;28;20075;-47
2022/02/05 08:15:55;;;;;;;23.17;10.40;;;;;;;-2.51;97.26;95192.19;5047966;28;20052;-47
2022/02/05 08:18:22;;;;;;;28.40;15.52;;;;;;;-2.36;97.43;95196.81;5049489;28;20098;-48
2022/02/05 08:20:48;;;;;;;21.70;11.65;;;;;;;-2.22;97.95;95206.56;5047640;28;20111;-47
2022/02/05 08:23:15;;;;;;;10.52;7.07;;;;;;;-2.27;97.89;95188.31;5048065;28;20123;-47
2022/02/05 08:25:42;;;;;;;22.85;14.02;;;;;;;-2.03;98.38;95194.66;5048736;28;20053;-48
2022/02/05 08:28:09;;;;;;;26.52;13.20;;;;;;;-1.79;97.75;95192.31;5046107;28;20040;-47
2022/02/05 08:30:36;;;;;;;23.63;12.95;;;;;;;-1.66;95.59;95198.81;5046743;28;20494;-47
2022/02/05 08:33:03;;;;;;;38.70;17.35;;;;;;;-1.58;95.14;95204.00;5047596;28;20044;-46
2022/02/05 08:35:30;;;;;;;36.03;17.77;;;;;;;-1.59;95.20;95198.09;5047476;28;20506;-49
2022/02/05 08:38:00;;;;;;;41.50;19.90;;;;;;;-1.38;95.43;95190.13;5050079;28;20052;-48
2022/02/05 08:40:27;;;;;;;59.60;20.63;;;;;;;-1.30;93.85;95181.72;5048457;28;20490;-49
2022/02/05 08:42:54;;;;;;;45.97;19.25;;;;;;;-1.06;92.80;95173.41;5048774;28;20137;-47
2022/02/05 08:45:21;;;;;;;50.67;21.52;;;;;;;-0.97;91.82;95161.50;5050447;28;20413;-46
2022/02/05 08:47:47;;;;;;;48.95;21.77;;;;;;;-0.69;92.71;95154.41;5046526;28;20068;-50
2022/02/05 08:50:14;;;;;;;49.50;22.00;;;;;;;-0.39;90.77;95165.91;5045626;28;20045;-47
2022/02/05 08:52:41;;;;;;;46.92;22.55;;;;;;;-0.13;90.23;95174.47;5048345;28;20410;-50
2022/02/05 08:55:09;;;;;;;30.08;13.15;;;;;;;-0.06;85.60;95160.06;5047449;28;20114;-48
2022/02/05 08:57:38;;;;;;;40.10;20.00;;;;;;;0.21;84.52;95171.00;5048226;28;20407;-47
2022/02/05 09:00:12;;;;;;;42.22;21.13;;;;;;;0.44;83.63;95169.44;5047276;28;20835;-47
2022/02/05 09:07:37;;;;;;;36.00;15.57;;;;;;;0.44;82.17;95172.00;5050259;28;20041;-47
2022/02/05 09:10:11;;;;;;;36.17;13.63;;;;;;;0.37;81.39;95186.41;5048595;28;20061;-46
2022/02/05 09:15:07;;;;;;;33.58;16.20;;;;;;;0.41;81.21;95185.13;5048055;28;20041;-47
2022/02/05 09:17:35;;;;;;;25.75;10.68;;;;;;;0.39;83.58;95189.59;5045388;28;20068;-48
2022/02/05 09:20:03;;;;;;;39.28;16.88;;;;;;;0.47;82.90;95181.94;5046002;28;20049;-47
2022/02/05 09:22:31;;;;;;;32.60;17.38;;;;;;;0.49;82.46;95195.38;5048970;28;20090;-51
2022/02/05 09:24:58;;;;;;;36.28;17.30;;;;;;;0.57;81.25;95202.28;5042193;28;20106;-47
2022/02/05 09:27:28;;;;;;;46.90;17.83;;;;;;;0.67;81.31;95181.63;5047812;28;20045;-49
2022/02/05 09:32:27;;;;;;;44.22;15.82;;;;;;;0.99;80.46;95200.50;5044233;28;20049;-49
2022/02/05 09:34:54;;;;;;;42.05;18.45;;;;;;;1.10;78.17;95197.63;5047198;28;20040;-47
2022/02/05 09:37:21;;;;;;;36.67;17.02;;;;;;;1.23;77.73;95189.41;5045075;28;20107;-49
2022/02/05 09:39:49;;;;;;;20.70;9.82;;;;;;;1.42;77.92;95190.78;5043913;28;21094;-49
2022/02/05 09:42:17;;;;;;;32.95;16.17;;;;;;;1.54;77.82;95184.34;5044091;28;20049;-47
2022/02/05 09:44:43;;;;;;;32.38;15.98;;;;;;;1.75;76.89;95182.97;5045533;28;20044;-47
2022/02/05 09:47:10;;;;;;;35.88;16.55;;;;;;;1.98;76.44;95186.41;5044183;28;20049;-47
2022/02/05 09:49:38;;;;;;;37.22;16.30;;;;;;;2.16;76.09;95182.75;5043608;28;20068;-46
2022/02/05 09:52:19;;;;;;;34.67;17.38;;;;;;;2.33;75.74;95189.41;5047162;28;20053;-47
2022/02/05 09:54:46;;;;;;;32.42;14.30;;;;;;;2.35;73.49;95176.41;5045463;28;20048;-48
2022/02/05 09:57:14;;;;;;;33.83;15.63;;;;;;;2.43;72.47;95179.72;5044844;28;20456;-47
2022/02/05 09:59:45;;;;;;;28.10;14.18;;;;;;;2.63;71.98;95168.97;5045573;28;20056;-48
2022/02/05 10:02:29;;;;;;;36.35;14.95;;;;;;;2.71;71.00;95173.25;5040629;28;20049;-49
2022/02/05 10:05:08;;;;;;;22.30;10.60;;;;;;;2.75;70.12;95162.41;5044174;28;20049;-49
2022/02/05 10:07:57;;;;;;;39.08;16.40;;;;;;;2.85;70.05;95152.69;5045574;28;20072;-47
2022/02/05 10:10:35;;;;;;;30.60;14.43;;;;;;;3.13;78.43;95149.53;5044938;28;20384;-47
2022/02/05 10:13:06;;;;;;;39.28;16.92;;;;;;;3.35;68.58;95153.00;5043298;28;20135;-45
2022/02/05 10:15:37;;;;;;;42.67;18.02;;;;;;;3.44;68.16;95151.16;5045952;28;20495;-53
2022/02/05 10:18:04;;;;;;;30.95;14.65;;;;;;;3.66;67.76;95157.16;5044155;28;20068;-46
2022/02/05 10:20:32;;;;;;;34.63;16.60;;;;;;;3.79;66.82;95143.63;5045445;28;20048;-48
2022/02/05 10:23:11;;;;;;;37.67;17.15;;;;;;;3.99;67.71;95147.22;5044012;28;20057;-45
2022/02/05 10:25:38;;;;;;;34.38;16.10;;;;;;;4.05;65.26;95137.19;5046295;28;20068;-47
2022/02/05 10:28:10;;;;;;;35.20;16.75;;;;;;;4.30;65.23;95150.50;5044004;28;20103;-47
2022/02/05 10:30:43;;;;;;;45.22;18.30;;;;;;;4.44;64.32;95135.97;5045566;28;20438;-49
2022/02/05 10:33:17;;;;;;;69.93;26.45;;;;;;;4.71;64.11;95148.09;5043824;28;20045;-46
2022/02/05 10:43:58;;;;;;;34.08;17.13;;;;;;;4.99;63.79;95124.09;5045384;28;20116;-46
2022/02/05 10:46:36;;;;;;;29.10;13.20;;;;;;;5.22;59.11;95123.03;5043623;28;20053;-47
2022/02/05 10:49:03;;;;;;;32.85;15.07;;;;;;;5.27;60.00;95115.53;5044880;28;20049;-47
2022/02/05 10:51:42;;;;;;;39.25;19.40;;;;;;;5.43;64.12;95120.38;5048604;28;20536;-48
2022/02/05 10:54:36;;;;;;;50.45;20.95;;;;;;;5.85;64.29;95121.16;5049213;28;20051;-46
2022/02/05 10:57:32;;;;;;;39.10;19.13;;;;;;;6.19;62.38;95119.47;5047410;28;20067;-47
2022/02/05 11:05:41;;;;;;;47.38;21.20;;;;;;;6.36;61.91;95119.13;5043235;28;20052;-47
2022/02/05 11:08:10;;;;;;;35.92;19.83;;;;;;;6.66;59.93;95125.50;5042240;28;20056;-47
2022/02/05 11:21:06;;;;;;;43.10;21.25;;;;;;;7.53;59.05;95119.44;5042275;28;20783;-47
2022/02/05 11:23:34;;;;;;;40.78;21.48;;;;;;;7.93;57.54;95114.06;5043637;28;20068;-45
2022/02/05 11:26:05;;;;;;;42.17;21.38;;;;;;;8.12;56.75;95102.00;5044494;28;20048;-46
2022/02/05 11:28:43;;;;;;;47.75;22.25;;;;;;;8.33;53.99;95098.28;5043337;28;20057;-49
2022/02/05 11:31:13;;;;;;;41.15;21.95;;;;;;;8.71;53.78;95110.41;5041580;28;20082;-48
2022/02/05 11:33:41;;;;;;;41.42;19.95;;;;;;;8.90;52.59;95109.47;5041004;28;20060;-50
2022/02/05 11:36:39;;;;;;;44.92;20.00;;;;;;;9.07;50.40;95094.09;5040947;28;20069;-48
2022/02/05 11:39:02;;;;;;;38.58;19.15;;;;;;;8.96;50.40;95102.63;5042488;28;20095;-46
2022/02/05 11:41:36;;;;;;;29.38;16.42;;;;;;;8.30;51.36;95101.28;5043831;28;20130;-49
2022/02/05 11:44:36;;;;;;;35.83;15.35;;;;;;;8.33;51.48;95093.09;5043086;28;20068;-48
2022/02/05 11:47:03;;;;;;;26.75;13.02;;;;;;;8.06;51.43;95090.66;5044057;28;20041;-47
2022/02/05 11:49:52;;;;;;;30.50;12.40;;;;;;;7.96;51.27;95091.13;5042374;28;20045;-47
2022/02/05 11:52:37;;;;;;;22.02;12.15;;;;;;;8.10;49.75;95094.41;5042666;28;20045;-49
2022/02/05 11:55:12;;;;;;;30.27;13.27;;;;;;;7.92;49.16;95102.09;5040202;28;20061;-47
2022/02/05 11:57:41;;;;;;;27.40;13.65;;;;;;;7.92;48.71;95092.50;5039470;28;20053;-46
2022/02/05 12:00:22;;;;;;;32.80;14.45;;;;;;;8.10;49.27;95099.59;5045204;28;20052;-46
2022/02/05 12:05:25;;;;;;;27.77;14.90;;;;;;;9.11;48.02;95079.69;5046439;28;20045;-48
2022/02/05 12:08:04;;;;;;;38.08;15.77;;;;;;;9.35;47.09;95079.84;5047394;28;20068;-45
2022/02/05 12:10:41;;;;;;;28.80;14.90;;;;;;;9.43;46.68;95091.75;5045950;28;20041;-47
2022/02/05 12:13:19;;;;;;;23.48;12.65;;;;;;;9.70;44.97;95082.63;5042645;28;20814;-48
2022/02/05 12:16:08;;;;;;;33.63;14.18;;;;;;;9.86;45.27;95085.66;5039965;28;20091;-46
2022/02/05 12:18:55;;;;;;;26.60;14.23;;;;;;;10.31;45.15;95095.69;5036095;28;20130;-47
2022/02/05 12:21:29;;;;;;;41.72;21.45;;;;;;;10.62;45.20;95088.63;5043242;28;20041;-47
2022/02/05 12:26:29;;;;;;;35.05;16.63;;;;;;;11.66;44.59;95094.00;5041356;28;20067;-47
2022/02/05 12:29:01;;;;;;;29.42;18.02;;;;;;;12.39;42.89;95090.94;5043895;28;20060;-49
2022/02/05 12:31:36;;;;;;;36.60;19.52;;;;;;;13.03;41.20;95090.63;5045426;28;20040;-47
2022/02/05 12:34:13;;;;;;;34.30;17.52;;;;;;;13.09;39.45;95094.91;5043603;28;20055;-46
2022/02/05 12:36:45;;;;;;;34.22;18.35;;;;;;;13.09;38.44;95100.16;5042879;28;20812;-47
2022/02/05 12:39:27;;;;;;;32.65;14.60;;;;;;;12.92;38.59;95088.91;5044739;28;20430;-45
2022/02/05 12:42:03;;;;;;;29.80;16.02;;;;;;;12.67;39.08;95092.69;5045505;28;20041;-48
2022/02/05 12:44:32;;;;;;;31.88;16.35;;;;;;;12.35;39.42;95085.41;5040703;28;20049;-48
2022/02/05 12:47:16;;;;;;;40.40;20.40;;;;;;;12.40;41.81;95072.41;5040964;28;20099;-47
2022/02/05 12:49:50;;;;;;;31.42;18.02;;;;;;;12.68;42.04;95068.16;5042279;28;20474;-47
2022/02/05 12:52:24;;;;;;;55.75;30.15;;;;;;;12.91;40.00;95082.06;5043712;28;20065;-48
2022/02/05 12:54:56;;;;;;;32.95;18.42;;;;;;;12.86;39.14;95079.41;5047201;28;20064;-45
2022/02/05 12:57:24;;;;;;;33.47;16.35;;;;;;;13.11;39.85;95071.94;5045730;28;20049;-46
2022/02/05 12:59:52;;;;;;;37.28;15.43;;;;;;;13.74;38.38;95069.09;5046729;28;20045;-47
2022/02/05 13:02:23;;;;;;;28.50;13.48;;;;;;;13.84;36.23;95061.34;5048529;28;20128;-47
2022/02/05 13:04:55;;;;;;;26.98;15.27;;;;;;;13.98;35.74;95058.34;5045281;28;20045;-46
2022/02/05 13:07:25;;;;;;;32.92;16.67;;;;;;;14.22;36.67;95059.63;5046210;28;20048;-46
2022/02/05 13:09:57;;;;;;;37.17;19.10;;;;;;;14.97;35.40;95070.22;5044097;28;20053;-48
2022/02/05 13:12:39;;;;;;;25.00;14.85;;;;;;;15.64;33.63;95067.94;5045178;28;20427;-46
2022/02/05 13:15:23;;;;;;;25.52;12.70;;;;;;;15.70;31.82;95061.69;5044296;28;20442;-46
2022/02/05 13:29:18;;;;;;;31.88;19.02;;;;;;;17.37;31.97;95045.47;5046011;28;20044;-49
2022/02/05 13:34:36;;;;;;;36.17;22.33;;;;;;;17.15;31.79;95045.03;5046064;28;20068;-46
2022/02/05 13:42:13;;;;;;;34.03;18.85;;;;;;;16.84;31.83;95078.50;5046671;28;20099;-47
2022/02/05 13:44:42;;;;;;;33.92;19.58;;;;;;;16.67;31.22;95083.97;5046325;28;20052;-46
2022/02/05 13:47:16;;;;;;;41.90;19.17;;;;;;;16.44;32.84;95067.66;5049029;28;20057;-47
2022/02/05 13:50:11;;;;;;;34.95;19.95;;;;;;;16.71;31.96;95079.75;5045271;28;20058;-47
2022/02/05 13:52:42;;;;;;;;;;;;;;;16.98;31.70;95090.84;5045675;28;20111;-48
2022/02/05 13:55:29;;;;;;;26.48;16.50;;;;;;;17.05;30.96;95090.56;5045672;28;19928;-49
2022/02/05 13:58:07;;;;;;;38.47;16.60;;;;;;;17.25;30.72;95091.56;5047003;28;20033;-48
2022/02/05 14:00:56;;;;;;;41.60;22.90;;;;;;;17.45;30.69;95096.00;5046757;28;20048;-46
2022/02/05 14:03:35;;;;;;;34.33;19.48;;;;;;;17.72;29.81;95088.56;5046436;28;20211;-50
2022/02/05 14:06:08;;;;;;;36.70;21.73;;;;;;;17.85;29.32;95096.94;5045298;28;20044;-45
2022/02/05 14:08:43;;;;;;;45.78;24.63;;;;;;;17.39;30.18;95096.03;5047258;28;20395;-47
2022/02/05 14:11:11;;;;;;;66.80;31.40;;;;;;;16.87;30.27;95078.75;5047045;28;20041;-47
2022/02/05 14:13:39;;;;;;;49.55;27.35;;;;;;;15.77;31.40;95083.28;5046329;28;20056;-48
2022/02/05 14:16:07;;;;;;;39.55;21.02;;;;;;;13.50;34.96;95069.31;5044759;28;20048;-52
2022/02/05 14:18:47;;;;;;;43.40;20.08;;;;;;;13.21;35.88;95071.25;5044932;28;20045;-47
2022/02/05 14:21:14;;;;;;;42.22;20.77;;;;;;;13.06;37.14;95066.63;5043842;28;20106;-47
2022/02/05 14:23:53;;;;;;;39.03;21.23;;;;;;;12.71;38.14;95067.69;5045977;28;20706;-47
2022/02/05 14:26:36;;;;;;;39.95;22.10;;;;;;;12.49;38.69;95058.97;5048126;28;20445;-50
2022/02/05 14:29:04;;;;;;;51.53;25.88;;;;;;;12.47;39.64;95066.25;5046924;28;20910;-48
2022/02/05 14:31:45;;;;;;;49.67;24.65;;;;;;;12.26;40.50;95073.72;5047271;28;20052;-49
2022/02/05 14:34:44;;;;;;;39.00;21.98;;;;;;;11.86;41.34;95083.16;5045331;28;20048;-47
2022/02/05 14:42:16;;;;;;;32.92;16.88;;;;;;;11.17;44.19;95074.50;5049052;28;20123;-50
2022/02/05 14:44:43;;;;;;;31.88;17.98;;;;;;;11.12;44.00;95072.56;5050912;28;20412;-49
2022/02/05 14:47:11;;;;;;;38.45;17.10;;;;;;;10.99;44.19;95083.22;5047386;28;20045;-46
2022/02/05 14:49:38;;;;;;;36.90;17.98;;;;;;;10.83;44.88;95069.84;5049267;28;20174;-45
2022/02/05 14:52:09;;;;;;;28.55;16.63;;;;;;;10.62;45.22;95073.00;5045506;28;20541;-49
2022/02/05 14:54:35;;;;;;;35.80;17.17;;;;;;;10.29;46.17;95075.06;5048175;28;20518;-46
2022/02/05 14:57:02;;;;;;;36.20;18.15;;;;;;;10.14;46.67;95083.28;5047492;28;20051;-47
2022/02/05 14:59:30;;;;;;;36.97;18.52;;;;;;;9.91;47.44;95088.41;5048879;28;20044;-46
2022/02/05 15:01:57;;;;;;;29.35;16.50;;;;;;;9.63;48.67;95089.72;5045852;28;20041;-47